Time;durP1;ratioP1;P1;durP2;ratioP2;P2;SDS_P1;SDS_P2;PMS_P1;PMS_P2;Temp;Humidity;BMP_temperature;BMP_pressure;BME280_temperature;BME280_humidity;BME280_pressure;Samples;Min_cycle;Max_cycle;Signal;HPM_P1;HPM_P2
2022/02/13 00:00:47;;;;;;;3.33;1.57;;;;;;;3.72;37.91;99576.97;5055630;28;20110;-70
2022/02/13 00:03:13;;;;;;;3.60;1.40;;;;;;;3.73;38.16;99571.59;5055418;28;20541;-70
2022/02/13 00:05:39;;;;;;;1.90;1.47;;;;;;;3.32;38.28;99537.94;5041524;28;20063;-70
2022/02/13 00:08:05;;;;;;;3.60;1.20;;;;;;;3.86;38.26;99572.31;5075804;28;20040;-70
2022/02/13 00:10:32;;;;;;;2.37;1.50;;;;;;;3.90;38.04;99567.66;5076010;28;20046;-70
2022/02/13 00:12:58;;;;;;;3.00;1.40;;;;;;;3.93;37.87;99572.69;5042752;28;20131;-72
2022/02/13 00:15:24;;;;;;;4.00;1.20;;;;;;;3.77;38.16;99566.94;5042441;28;20040;-70
2022/02/13 00:17:50;;;;;;;2.83;1.30;;;;;;;3.81;38.39;99577.09;5042385;28;20139;-77
2022/02/13 00:20:16;;;;;;;3.27;1.30;;;;;;;3.76;38.40;99568.72;5042944;28;20067;-71
2022/02/13 00:22:42;;;;;;;2.67;1.30;;;;;;;3.78;38.58;99573.88;5058400;28;20533;-70
2022/02/13 00:25:07;;;;;;;2.53;1.40;;;;;;;3.77;39.04;99569.56;5058473;28;20051;-70
2022/02/13 00:27:33;;;;;;;2.33;1.30;;;;;;;3.75;38.72;99571.47;5025495;28;20488;-71
2022/02/13 00:29:59;;;;;;;5.37;1.57;;;;;;;3.63;39.09;99562.72;5041716;28;20071;-70
2022/02/13 00:32:27;;;;;;;2.23;1.27;;;;;;;3.61;39.21;99574.31;5075203;28;20047;-72
2022/02/13 00:34:53;;;;;;;2.37;1.37;;;;;;;3.61;39.15;99569.06;5058731;28;20496;-72
2022/02/13 00:37:19;;;;;;;1.67;1.30;;;;;;;3.59;39.26;99570.94;5042104;28;20056;-70
2022/02/13 00:39:45;;;;;;;3.13;1.33;;;;;;;3.61;39.65;99555.94;5025922;28;20047;-71
2022/02/13 00:42:10;;;;;;;1.73;1.00;;;;;;;3.46;39.75;99577.13;5041801;28;20491;-71
2022/02/13 00:44:37;;;;;;;2.40;1.57;;;;;;;3.71;39.77;99560.34;5041960;28;20044;-71
2022/02/13 00:47:03;;;;;;;2.50;1.63;;;;;;;3.76;39.40;99560.84;5058731;28;20504;-69
2022/02/13 00:49:29;;;;;;;2.57;1.47;;;;;;;3.85;39.43;99565.41;5041535;28;20504;-70
2022/02/13 00:51:54;;;;;;;5.57;1.40;;;;;;;3.69;39.72;99566.69;5075013;28;20036;-70
2022/02/13 00:54:20;;;;;;;4.07;1.40;;;;;;;3.74;39.97;99560.13;5042066;28;20044;-69
2022/02/13 00:56:46;;;;;;;3.13;1.33;;;;;;;3.57;39.73;99530.88;5058951;28;20161;-71
2022/02/13 00:59:15;;;;;;;1.97;1.10;;;;;;;3.94;39.65;99561.22;5042428;28;20036;-71
2022/02/13 01:01:40;;;;;;;2.57;1.37;;;;;;;4.02;39.46;99564.94;5041795;28;20040;-71
2022/02/13 01:04:06;;;;;;;1.70;1.20;;;;;;;3.99;39.24;99552.03;5041470;28;20060;-71
2022/02/13 01:06:32;;;;;;;3.13;1.53;;;;;;;3.96;39.82;99567.19;5057947;28;20054;-70
2022/02/13 01:08:58;;;;;;;3.00;1.50;;;;;;;4.02;39.86;99570.19;5057964;28;20044;-70
2022/02/13 01:11:24;;;;;;;3.33;1.37;;;;;;;3.87;40.09;99565.28;5041121;28;20054;-71
2022/02/13 01:13:50;;;;;;;2.87;1.37;;;;;;;3.98;39.72;99568.75;5041506;28;20050;-70
2022/02/13 01:16:16;;;;;;;4.03;1.30;;;;;;;4.10;39.77;99564.34;5024077;28;20127;-70
2022/02/13 01:18:42;;;;;;;6.23;1.90;;;;;;;3.82;40.76;99565.63;5040949;28;20067;-70
2022/02/13 01:21:08;;;;;;;4.57;1.60;;;;;;;3.89;40.77;99568.63;5040835;28;20048;-70
2022/02/13 01:23:34;;;;;;;2.10;1.13;;;;;;;3.99;40.68;99565.16;5039942;28;20035;-71
2022/02/13 01:26:00;;;;;;;2.23;1.20;;;;;;;3.86;40.49;99534.72;5040243;28;20060;-71
2022/02/13 01:28:26;;;;;;;2.27;1.33;;;;;;;4.01;40.86;99565.91;5073671;28;20036;-70
2022/02/13 01:30:57;;;;;;;3.20;1.50;;;;;;;4.08;40.76;99563.59;5057267;28;20036;-71
2022/02/13 01:33:23;;;;;;;4.13;1.50;;;;;;;4.14;40.47;99563.97;5058278;28;20518;-70
2022/02/13 01:35:49;;;;;;;5.27;1.80;;;;;;;4.30;40.48;99563.63;5040320;28;20044;-71
2022/02/13 01:38:15;;;;;;;2.40;1.40;;;;;;;4.35;40.39;99561.47;5073684;28;20043;-70
2022/02/13 01:40:40;;;;;;;4.63;1.40;;;;;;;4.33;40.54;99558.13;5040605;28;20050;-70
2022/02/13 01:43:06;;;;;;;2.47;1.17;;;;;;;4.09;40.75;99533.75;5040651;28;20127;-71
2022/02/13 01:45:32;;;;;;;4.63;1.40;;;;;;;4.40;40.61;99556.66;5040844;28;20071;-71
2022/02/13 01:47:58;;;;;;;4.00;1.63;;;;;;;4.36;40.91;99563.97;5040634;28;20543;-71
2022/02/13 01:50:24;;;;;;;3.27;1.30;;;;;;;4.42;41.02;99565.28;5057446;28;20056;-71
2022/02/13 01:52:50;;;;;;;2.87;1.50;;;;;;;4.56;41.37;99575.53;5057327;28;20059;-70
2022/02/13 01:55:16;;;;;;;4.60;1.13;;;;;;;4.38;41.16;99569.13;5073416;28;20048;-71
2022/02/13 01:57:42;;;;;;;1.77;1.20;;;;;;;4.45;41.38;99565.03;5056797;28;20064;-71
2022/02/13 02:00:08;;;;;;;2.87;1.60;;;;;;;4.64;40.87;99566.06;5040131;28;20044;-72
2022/02/13 02:02:41;;;;;;;3.83;1.33;;;;;;;4.53;41.23;99560.00;5073374;28;20036;-71
2022/02/13 02:05:07;;;;;;;3.83;1.67;;;;;;;4.51;41.88;99572.44;5070093;28;20060;-70
2022/02/13 02:07:33;;;;;;;2.77;1.50;;;;;;;4.60;41.55;99559.38;5036575;28;20036;-71
2022/02/13 02:09:59;;;;;;;1.70;1.23;;;;;;;4.44;41.66;99558.97;5036703;28;20060;-72
2022/02/13 02:12:26;;;;;;;2.73;1.30;;;;;;;4.45;41.67;99568.50;5053803;28;20048;-70
2022/02/13 02:14:52;;;;;;;1.80;1.50;;;;;;;4.63;41.89;99563.56;5053466;28;20044;-70
2022/02/13 02:17:18;;;;;;;3.70;1.50;;;;;;;4.69;41.74;99568.34;5053083;28;20044;-70
2022/02/13 02:19:44;;;;;;;2.27;1.50;;;;;;;4.47;42.24;99563.13;5036647;28;20083;-71
2022/02/13 02:22:10;;;;;;;4.57;1.30;;;;;;;4.82;41.66;99575.13;5019988;28;20075;-71
2022/02/13 02:24:36;;;;;;;3.67;1.30;;;;;;;4.58;42.11;99571.00;5053585;28;20082;-71
2022/02/13 02:27:03;;;;;;;6.37;1.63;;;;;;;4.62;42.07;99583.78;5053045;28;20076;-71
2022/02/13 02:29:29;;;;;;;2.23;1.27;;;;;;;4.69;42.09;99581.50;5019677;28;20052;-72
2022/02/13 02:31:55;;;;;;;4.77;1.83;;;;;;;4.80;42.07;99584.94;5036658;28;20068;-71
2022/02/13 02:34:21;;;;;;;5.53;1.57;;;;;;;4.88;41.51;99589.59;5035992;28;20144;-71
2022/02/13 02:36:47;;;;;;;3.57;1.50;;;;;;;4.83;41.28;99586.47;5036210;28;20051;-71
2022/02/13 02:39:13;;;;;;;4.87;1.67;;;;;;;5.03;41.16;99593.59;5036050;28;20037;-71
2022/02/13 02:41:38;;;;;;;2.73;1.60;;;;;;;4.97;41.29;99586.19;5019743;28;20041;-71
2022/02/13 02:44:04;;;;;;;6.27;1.40;;;;;;;5.04;41.24;99597.94;5052833;28;20392;-71
2022/02/13 02:46:31;;;;;;;4.53;1.67;;;;;;;5.18;40.92;99579.22;5019812;28;20481;-70
2022/02/13 02:48:57;;;;;;;5.73;1.67;;;;;;;4.97;41.26;99580.94;5069717;28;20048;-71
2022/02/13 02:51:23;;;;;;;4.23;1.73;;;;;;;4.95;41.34;99582.88;5052514;28;20043;-70
2022/02/13 02:53:49;;;;;;;3.63;1.57;;;;;;;4.87;42.00;99582.66;5019794;28;20052;-70
2022/02/13 02:56:14;;;;;;;3.60;1.30;;;;;;;4.94;41.71;99581.19;5036132;28;20089;-70
2022/02/13 02:58:40;;;;;;;3.20;1.50;;;;;;;4.98;41.73;99585.25;5036262;28;20040;-72
2022/02/13 03:01:07;;;;;;;3.40;1.60;;;;;;;4.87;42.26;99574.75;5069365;28;20087;-72
2022/02/13 03:03:33;;;;;;;5.20;1.40;;;;;;;4.89;42.14;99580.72;5054194;28;20048;-70
2022/02/13 03:06:00;;;;;;;2.00;1.20;;;;;;;4.95;41.82;99578.44;5090781;28;20518;-77
2022/02/13 03:08:26;;;;;;;2.00;1.40;;;;;;;5.07;41.61;99579.25;5056167;28;20040;-67
2022/02/13 03:10:52;;;;;;;2.27;1.30;;;;;;;4.80;42.25;99570.94;5022575;28;20102;-70
2022/02/13 03:13:22;;;;;;;1.70;1.43;;;;;;;4.99;42.11;99581.66;5039005;28;20059;-70
2022/02/13 03:15:49;;;;;;;5.13;1.80;;;;;;;5.12;41.78;99570.00;5072615;28;20040;-70
2022/02/13 03:18:17;;;;;;;5.87;1.77;;;;;;;5.03;41.63;99580.44;5055231;28;20086;-70
2022/02/13 03:20:50;;;;;;;3.47;1.43;;;;;;;5.40;41.79;99584.38;5072462;28;20135;-70
2022/02/13 03:23:17;;;;;;;5.00;1.47;;;;;;;5.30;41.54;99580.84;5055575;28;20554;-70
2022/02/13 03:25:44;;;;;;;3.63;1.37;;;;;;;5.16;41.54;99581.13;5090491;28;20113;-70
2022/02/13 03:28:10;;;;;;;4.07;1.43;;;;;;;5.05;41.96;99584.63;5022589;28;20138;-70
2022/02/13 03:30:36;;;;;;;3.97;1.50;;;;;;;4.98;42.47;99582.63;5039061;28;20071;-70
2022/02/13 03:33:03;;;;;;;6.70;1.67;;;;;;;4.95;42.56;99573.16;5038937;28;20523;-70
2022/02/13 03:35:29;;;;;;;4.73;2.20;;;;;;;5.02;42.10;99578.78;5039023;28;20040;-70
2022/02/13 03:37:55;;;;;;;4.60;2.03;;;;;;;5.01;42.21;99585.00;5055397;28;20044;-72
2022/02/13 03:40:21;;;;;;;4.00;1.40;;;;;;;5.13;41.63;99568.22;5041513;28;20101;-69
2022/02/13 03:42:47;;;;;;;5.07;1.90;;;;;;;4.99;42.24;99577.25;5076333;28;20043;-70
2022/02/13 03:45:13;;;;;;;4.67;1.53;;;;;;;5.21;41.69;99589.50;5076174;28;20101;-70
2022/02/13 03:47:40;;;;;;;2.83;1.40;;;;;;;5.13;42.46;99582.22;5076141;28;20075;-70
2022/02/13 03:50:07;;;;;;;4.37;1.50;;;;;;;5.41;41.73;99583.44;5059250;28;20052;-69
2022/02/13 03:52:32;;;;;;;4.07;1.50;;;;;;;5.16;41.91;99581.13;5075673;28;20105;-73
2022/02/13 03:55:01;;;;;;;3.43;1.53;;;;;;;5.25;41.53;99593.53;5042801;28;20488;-71
2022/02/13 03:57:29;;;;;;;3.65;1.88;;;;;;;5.45;41.43;99595.38;5076841;28;20052;-70
2022/02/13 03:59:56;;;;;;;4.63;1.30;;;;;;;5.31;41.56;99581.66;5059242;28;20071;-71
2022/02/13 04:02:22;;;;;;;2.70;1.33;;;;;;;5.42;41.46;99584.25;5058846;28;20044;-70
2022/02/13 04:04:49;;;;;;;3.77;1.87;;;;;;;5.65;40.99;99588.44;5075548;28;20056;-71
2022/02/13 04:07:15;;;;;;;4.50;1.40;;;;;;;5.50;40.93;99585.28;5059730;28;20039;-71
2022/02/13 04:09:42;;;;;;;7.77;1.70;;;;;;;5.45;40.81;99571.66;5025679;28;20399;-71
2022/02/13 04:12:08;;;;;;;3.73;1.40;;;;;;;5.45;41.04;99598.00;5058918;28;20154;-71
2022/02/13 04:14:34;;;;;;;4.33;1.60;;;;;;;5.56;40.67;99590.03;5042094;28;20050;-75
2022/02/13 04:17:02;;;;;;;7.57;1.70;;;;;;;5.65;40.64;99591.06;5042789;28;20042;-71
2022/02/13 04:19:28;;;;;;;3.93;1.20;;;;;;;5.77;40.30;99605.84;5093339;28;20521;-71
2022/02/13 04:21:54;;;;;;;3.70;1.30;;;;;;;5.58;40.39;99603.91;5058823;28;20048;-71
2022/02/13 04:24:19;;;;;;;5.50;1.70;;;;;;;5.75;40.07;99603.34;5058691;28;20469;-71
2022/02/13 04:26:45;;;;;;;5.90;1.43;;;;;;;5.89;40.25;99620.69;5058382;28;20058;-71
2022/02/13 04:29:11;;;;;;;6.53;1.63;;;;;;;5.94;40.09;99605.28;5041720;28;20055;-71
2022/02/13 04:31:39;;;;;;;3.43;1.20;;;;;;;5.88;40.13;99606.66;5041874;28;20142;-71
2022/02/13 04:34:09;;;;;;;5.53;1.77;;;;;;;5.81;40.06;99610.72;5058615;28;20059;-71
2022/02/13 04:36:35;;;;;;;2.67;1.30;;;;;;;6.07;39.77;99600.66;5058708;28;20471;-79
2022/02/13 04:39:01;;;;;;;4.83;1.50;;;;;;;6.06;39.57;99599.81;5041997;28;20131;-71
2022/02/13 04:41:27;;;;;;;4.73;1.50;;;;;;;6.11;39.39;99620.53;5058244;28;20044;-71
2022/02/13 04:43:53;;;;;;;9.57;1.63;;;;;;;6.10;39.16;99617.06;5058419;28;20044;-71
2022/02/13 04:46:18;;;;;;;2.77;1.17;;;;;;;6.01;39.35;99620.47;5041745;28;20092;-71
2022/02/13 04:48:44;;;;;;;5.03;1.80;;;;;;;5.96;38.99;99595.47;5058166;28;20404;-70
2022/02/13 04:51:10;;;;;;;5.10;1.70;;;;;;;6.14;39.12;99629.00;5040276;28;20048;-71
2022/02/13 04:53:36;;;;;;;7.63;1.83;;;;;;;6.19;38.93;99628.63;5041573;28;20047;-74
2022/02/13 04:56:04;;;;;;;4.17;1.60;;;;;;;6.26;39.02;99621.84;5058412;28;20048;-70
2022/02/13 04:58:34;;;;;;;4.37;1.60;;;;;;;6.41;38.89;99624.00;5058562;28;20353;-70
2022/02/13 05:01:00;;;;;;;2.50;1.47;;;;;;;6.22;38.57;99605.47;5025400;28;20043;-71
2022/02/13 05:03:26;;;;;;;4.90;1.50;;;;;;;6.44;38.45;99642.22;5041266;28;20126;-72
2022/02/13 05:05:53;;;;;;;4.60;1.50;;;;;;;6.58;38.24;99641.84;5041460;28;20044;-71
2022/02/13 05:08:19;;;;;;;5.33;1.60;;;;;;;6.53;38.13;99635.31;5074705;28;20599;-74
2022/02/13 05:10:45;;;;;;;2.27;1.33;;;;;;;6.26;38.36;99638.50;5074467;28;20048;-70
2022/02/13 05:13:11;;;;;;;6.57;1.27;;;;;;;6.54;38.38;99640.47;5041363;28;20043;-71
2022/02/13 05:15:37;;;;;;;8.40;1.60;;;;;;;6.30;38.74;99633.81;5041080;28;20040;-75
2022/02/13 05:18:03;;;;;;;2.70;1.73;;;;;;;6.29;38.92;99646.16;5057903;28;20412;-71
2022/02/13 05:20:29;;;;;;;6.53;1.33;;;;;;;6.45;38.62;99654.44;5057982;28;20182;-71
2022/02/13 05:22:55;;;;;;;5.50;1.50;;;;;;;6.35;38.43;99650.91;5024365;28;20040;-70
2022/02/13 05:25:21;;;;;;;2.97;1.40;;;;;;;6.49;38.52;99657.63;5041018;28;20077;-72
2022/02/13 05:27:47;;;;;;;4.33;1.70;;;;;;;6.46;38.34;99650.00;5092473;28;20123;-70
2022/02/13 05:30:13;;;;;;;3.87;1.40;;;;;;;6.44;38.61;99652.75;5040971;28;20086;-72
2022/02/13 05:32:39;;;;;;;3.67;1.33;;;;;;;6.44;38.56;99667.78;5024371;28;20047;-73
2022/02/13 05:35:05;;;;;;;6.77;1.30;;;;;;;6.27;38.84;99648.09;5041185;28;20035;-71
2022/02/13 05:37:31;;;;;;;6.20;1.40;;;;;;;6.24;38.51;99619.34;5040483;28;20047;-71
2022/02/13 05:39:58;;;;;;;3.00;1.43;;;;;;;6.55;38.26;99657.13;5024307;28;20521;-70
2022/02/13 05:42:24;;;;;;;4.43;1.43;;;;;;;6.37;38.52;99642.88;5040515;28;20496;-71
2022/02/13 05:44:53;;;;;;;3.53;1.07;;;;;;;6.99;38.02;99669.09;5073933;28;20109;-71
2022/02/13 05:47:20;;;;;;;4.30;1.40;;;;;;;6.88;37.83;99670.88;5057245;28;20047;-70
2022/02/13 05:49:46;;;;;;;3.17;1.27;;;;;;;6.71;37.71;99681.22;5056261;28;20062;-69
2022/02/13 05:52:12;;;;;;;4.60;1.57;;;;;;;6.74;38.06;99683.59;5039719;28;20610;-70
2022/02/13 05:54:38;;;;;;;6.30;1.57;;;;;;;6.71;37.85;99678.56;5056908;28;20093;-69
2022/02/13 05:57:04;;;;;;;4.80;1.50;;;;;;;6.87;37.73;99663.91;5040049;28;20368;-69
2022/02/13 05:59:30;;;;;;;5.30;1.40;;;;;;;6.96;37.30;99680.75;5056283;28;20138;-70
2022/02/13 06:01:56;;;;;;;3.13;1.30;;;;;;;6.93;37.08;99667.84;5072268;28;20082;-70
2022/02/13 06:04:23;;;;;;;6.63;1.50;;;;;;;6.96;37.66;99674.63;5039206;28;20093;-70
2022/02/13 06:06:50;;;;;;;1.93;1.13;;;;;;;6.86;37.69;99670.16;5039129;28;20124;-71
2022/02/13 06:09:16;;;;;;;5.37;1.70;;;;;;;7.06;37.60;99680.81;5055922;28;20412;-71
2022/02/13 06:11:42;;;;;;;5.30;1.57;;;;;;;6.88;37.22;99673.53;5090637;28;20048;-72
2022/02/13 06:14:09;;;;;;;5.07;1.90;;;;;;;6.92;37.50;99671.41;5039430;28;20056;-70
2022/02/13 06:16:35;;;;;;;5.60;1.37;;;;;;;7.02;37.68;99674.94;5039027;28;20044;-70
2022/02/13 06:19:01;;;;;;;4.87;1.57;;;;;;;6.93;37.52;99671.28;5038698;28;20097;-71
2022/02/13 06:21:27;;;;;;;6.00;2.13;;;;;;;6.90;37.32;99673.38;5022652;28;20396;-70
2022/02/13 06:23:53;;;;;;;7.43;1.70;;;;;;;6.69;37.73;99684.00;5072368;28;20055;-74
2022/02/13 06:26:19;;;;;;;3.97;1.90;;;;;;;6.84;37.74;99674.72;5022896;28;20043;-70
2022/02/13 06:28:45;;;;;;;3.87;1.90;;;;;;;6.95;37.55;99679.06;5056059;28;20547;-70
2022/02/13 06:31:12;;;;;;;4.67;1.80;;;;;;;6.88;37.67;99668.25;5039261;28;20118;-67
2022/02/13 06:33:38;;;;;;;1.77;1.30;;;;;;;7.02;37.19;99676.75;5056090;28;20048;-69
2022/02/13 06:36:04;;;;;;;4.87;1.40;;;;;;;7.09;37.15;99689.25;5090657;28;20048;-69
2022/02/13 06:38:30;;;;;;;7.57;1.80;;;;;;;6.95;37.55;99670.34;5090795;28;20071;-68
2022/02/13 06:40:56;;;;;;;3.63;1.70;;;;;;;7.01;37.78;99683.84;5090709;28;20252;-71
2022/02/13 06:43:22;;;;;;;3.57;1.20;;;;;;;6.88;37.65;99684.06;5055780;28;20063;-72
2022/02/13 06:45:48;;;;;;;7.30;1.83;;;;;;;7.08;37.33;99692.03;5072440;28;20071;-70
2022/02/13 06:48:14;;;;;;;7.13;3.30;;;;;;;7.11;37.11;99689.13;5055876;28;20040;-69
2022/02/13 06:50:39;;;;;;;5.80;2.37;;;;;;;6.94;37.08;99651.00;5039410;28;20047;-68
2022/02/13 06:53:06;;;;;;;4.83;1.53;;;;;;;7.42;36.72;99707.44;5072696;28;20039;-68
2022/02/13 06:55:32;;;;;;;4.47;1.80;;;;;;;7.19;36.89;99699.84;5055576;28;20047;-68
2022/02/13 06:57:58;;;;;;;6.80;1.70;;;;;;;7.29;37.15;99687.53;5039231;28;20040;-70
2022/02/13 07:00:24;;;;;;;1.70;1.17;;;;;;;7.37;36.34;99682.38;5072482;28;20043;-70
2022/02/13 07:02:50;;;;;;;5.43;1.50;;;;;;;7.40;36.73;99712.00;5072410;28;20412;-72
2022/02/13 07:05:16;;;;;;;8.13;1.60;;;;;;;7.40;36.75;99716.44;5055221;28;20048;-70
2022/02/13 07:07:42;;;;;;;2.83;1.30;;;;;;;7.37;36.62;99687.66;5072186;28;20067;-69
2022/02/13 07:10:11;;;;;;;5.17;1.50;;;;;;;7.30;37.38;99711.16;5090519;28;20051;-71
2022/02/13 07:12:38;;;;;;;4.47;1.40;;;;;;;7.28;37.08;99691.97;5072766;28;20178;-71
2022/02/13 07:15:07;;;;;;;3.93;1.43;;;;;;;7.49;37.30;99713.81;5040762;28;20043;-70
2022/02/13 07:17:34;;;;;;;4.73;1.53;;;;;;;7.60;36.61;99697.84;5065381;28;20408;-73
2022/02/13 07:20:00;;;;;;;3.93;1.67;;;;;;;7.46;36.77;99721.19;5080163;28;20043;-70
2022/02/13 07:22:26;;;;;;;6.70;1.40;;;;;;;7.44;36.53;99696.72;5075493;28;20039;-73
2022/02/13 07:24:52;;;;;;;6.93;1.70;;;;;;;7.47;36.56;99728.16;5110577;28;20078;-70
2022/02/13 07:27:18;;;;;;;9.43;1.57;;;;;;;7.45;36.54;99703.66;5059149;28;20186;-70
2022/02/13 07:29:44;;;;;;;2.97;1.43;;;;;;;7.30;36.85;99712.97;5075438;28;20031;-72
2022/02/13 07:32:10;;;;;;;4.33;1.60;;;;;;;7.38;36.98;99713.13;5092742;28;20040;-67
2022/02/13 07:34:36;;;;;;;6.70;1.70;;;;;;;7.35;37.24;99716.84;5110546;28;20391;-68
2022/02/13 07:37:02;;;;;;;4.93;1.50;;;;;;;7.55;37.15;99728.31;5092659;28;20070;-69
2022/02/13 07:39:33;;;;;;;6.80;1.90;;;;;;;7.38;37.36;99735.06;5042219;28;20567;-72
2022/02/13 07:41:59;;;;;;;5.13;1.60;;;;;;;7.47;37.16;99733.44;5058906;28;20491;-72
2022/02/13 07:44:26;;;;;;;4.30;1.50;;;;;;;7.52;37.24;99718.84;5058898;28;20527;-73
2022/02/13 07:46:52;;;;;;;5.83;1.57;;;;;;;7.71;36.67;99726.81;5058045;28;20573;-73
2022/02/13 07:49:18;;;;;;;4.27;1.30;;;;;;;7.90;36.69;99742.66;5073756;28;20039;-75
2022/02/13 07:51:44;;;;;;;6.93;1.90;;;;;;;8.01;36.36;99752.28;5074000;28;20053;-70
2022/02/13 07:54:11;;;;;;;6.17;2.17;;;;;;;8.10;36.28;99744.34;5075916;28;20531;-75
2022/02/13 07:56:37;;;;;;;6.57;2.23;;;;;;;7.69;36.46;99736.66;5057828;28;20063;-73
2022/02/13 07:59:03;;;;;;;6.50;1.83;;;;;;;7.86;36.25;99738.63;5057498;28;20085;-74
2022/02/13 08:01:28;;;;;;;7.30;2.10;;;;;;;7.72;36.32;99733.75;5058615;28;20051;-73
2022/02/13 08:03:54;;;;;;;11.23;2.57;;;;;;;8.02;36.15;99756.59;5042272;28;21439;-74
2022/02/13 08:06:20;;;;;;;6.77;1.70;;;;;;;8.06;36.10;99756.19;5042118;28;20054;-72
2022/02/13 08:08:48;;;;;;;4.80;1.83;;;;;;;8.21;36.33;99751.31;5058577;28;20089;-73
2022/02/13 08:11:15;;;;;;;5.43;2.10;;;;;;;8.18;36.44;99757.69;5059134;28;20035;-71
2022/02/13 08:13:41;;;;;;;9.80;1.90;;;;;;;7.83;36.24;99704.53;5075768;28;20104;-73
2022/02/13 08:16:07;;;;;;;5.47;1.63;;;;;;;7.81;36.37;99709.13;5058368;28;20042;-73
2022/02/13 08:18:33;;;;;;;6.77;2.10;;;;;;;8.02;36.15;99716.94;5062550;28;20040;-70
2022/02/13 08:21:03;;;;;;;9.17;1.90;;;;;;;7.88;37.00;99742.00;5071429;28;20040;-72
2022/02/13 08:23:29;;;;;;;6.10;1.93;;;;;;;8.09;36.51;99749.75;5068805;28;20058;-72
2022/02/13 08:25:55;;;;;;;8.37;1.83;;;;;;;7.92;36.81;99766.31;5054470;28;20112;-74
2022/02/13 08:28:21;;;;;;;14.57;4.20;;;;;;;7.77;37.14;99760.63;5073237;28;20070;-70
2022/02/13 08:30:47;;;;;;;4.47;1.80;;;;;;;8.17;36.50;99766.63;5039271;28;20097;-72
2022/02/13 08:33:13;;;;;;;4.30;2.00;;;;;;;8.14;36.39;99750.19;5057251;28;20367;-71
2022/02/13 08:35:39;;;;;;;2.58;1.60;;;;;;;8.33;36.06;99755.50;5057369;28;20142;-71
2022/02/13 08:38:06;;;;;;;3.80;1.67;;;;;;;8.78;35.91;99761.00;5057006;28;20039;-72
2022/02/13 08:40:33;;;;;;;7.17;1.63;;;;;;;9.06;35.02;99752.09;5057172;28;20127;-71
2022/02/13 08:43:01;;;;;;;3.60;1.40;;;;;;;9.18;34.79;99757.06;5039758;28;20492;-71
2022/02/13 08:45:31;;;;;;;7.45;2.08;;;;;;;10.56;32.66;99768.13;5056038;28;20040;-71
2022/02/13 08:47:57;;;;;;;7.55;2.10;;;;;;;10.55;32.00;99769.13;5055849;28;20508;-72
2022/02/13 08:50:24;;;;;;;6.93;1.73;;;;;;;10.38;32.09;99754.06;5039818;28;20050;-71
2022/02/13 08:52:50;;;;;;;6.97;1.50;;;;;;;10.59;31.90;99768.69;5037552;28;20040;-71
2022/02/13 08:55:17;;;;;;;4.63;1.73;;;;;;;10.41;31.88;99757.22;5054058;28;20044;-70
2022/02/13 08:57:43;;;;;;;4.82;1.88;;;;;;;10.05;32.45;99764.38;5037709;28;20564;-71
2022/02/13 09:00:11;;;;;;;10.48;2.00;;;;;;;9.77;33.80;99773.38;5054318;28;20536;-70
2022/02/13 09:02:38;;;;;;;6.07;1.85;;;;;;;9.80;35.67;99746.53;5054566;28;20135;-71
2022/02/13 09:05:07;;;;;;;10.77;2.50;;;;;;;10.35;35.61;99779.09;5051363;28;20075;-71
2022/02/13 09:07:34;;;;;;;12.32;2.17;;;;;;;10.65;34.44;99772.53;5035727;28;20389;-71
2022/02/13 09:10:00;;;;;;;10.55;2.20;;;;;;;10.82;34.10;99769.84;5036439;28;20408;-71
2022/02/13 09:12:26;;;;;;;8.73;1.90;;;;;;;11.12;34.09;99763.16;5051588;28;20047;-73
2022/02/13 09:14:52;;;;;;;5.40;1.85;;;;;;;11.38;31.20;99756.81;5036065;28;20051;-71
2022/02/13 09:17:18;;;;;;;5.60;1.70;;;;;;;12.07;30.76;99767.19;5035734;28;20040;-71
2022/02/13 09:19:44;;;;;;;9.25;1.48;;;;;;;12.18;29.45;99766.88;5036182;28;20607;-72
2022/02/13 09:22:10;;;;;;;5.68;1.65;;;;;;;13.46;27.17;99742.69;5036350;28;20455;-72
2022/02/13 09:24:36;;;;;;;6.78;1.67;;;;;;;12.91;27.49;99738.34;5068870;28;20028;-72
2022/02/13 09:27:02;;;;;;;3.42;1.13;;;;;;;12.52;28.07;99753.38;5019196;28;20037;-72
2022/02/13 09:29:28;;;;;;;8.38;2.40;;;;;;;13.11;27.24;99750.31;5068165;28;20511;-72
2022/02/13 09:31:54;;;;;;;6.93;1.70;;;;;;;13.12;27.14;99754.66;5035747;28;20098;-72
2022/02/13 09:34:25;;;;;;;7.22;1.95;;;;;;;12.92;27.42;99732.84;5052288;28;20041;-71
2022/02/13 09:36:52;;;;;;;10.18;2.05;;;;;;;12.53;28.06;99763.06;5036131;28;20036;-72
2022/02/13 09:39:18;;;;;;;3.85;1.20;;;;;;;11.93;28.83;99757.19;5069146;28;20066;-71
2022/02/13 09:41:44;;;;;;;8.88;1.75;;;;;;;10.96;29.81;99697.47;5052439;28;20429;-73
2022/02/13 09:44:11;;;;;;;6.63;1.80;;;;;;;10.90;30.82;99745.13;5051778;28;20040;-72
2022/02/13 09:46:37;;;;;;;5.35;2.35;;;;;;;10.69;31.20;99755.28;5052182;28;20040;-74
2022/02/13 09:49:05;;;;;;;6.78;1.75;;;;;;;10.18;31.98;99748.91;5069529;28;20047;-73
2022/02/13 09:51:32;;;;;;;7.35;1.90;;;;;;;9.91;32.60;99761.41;5035032;28;20042;-72
2022/02/13 09:53:58;;;;;;;2.45;1.50;;;;;;;9.78;32.85;99759.09;5068562;28;20072;-71
2022/02/13 09:56:24;;;;;;;5.10;1.80;;;;;;;9.89;32.58;99747.44;5052171;28;20150;-71
2022/02/13 09:58:50;;;;;;;6.47;1.85;;;;;;;9.71;32.39;99707.66;5068481;28;20040;-71
2022/02/13 10:01:17;;;;;;;8.27;1.70;;;;;;;9.84;32.46;99768.31;5052047;28;20056;-69
2022/02/13 10:03:49;;;;;;;7.22;1.65;;;;;;;9.72;33.22;99762.38;5020246;28;20458;-71
2022/02/13 10:06:15;;;;;;;6.50;1.98;;;;;;;9.42;33.60;99754.75;5038893;28;20044;-68
2022/02/13 10:08:52;;;;;;;7.45;1.67;;;;;;;9.49;33.70;99721.34;5038521;28;20067;-71
2022/02/13 10:11:32;;;;;;;3.58;1.45;;;;;;;9.08;34.02;99745.69;5021486;28;20043;-70
2022/02/13 10:14:10;;;;;;;2.38;1.38;;;;;;;9.31;33.99;99754.94;5039294;28;20054;-70
2022/02/13 10:16:38;;;;;;;6.20;1.70;;;;;;;9.27;34.34;99748.25;5055101;28;20475;-70
2022/02/13 10:19:12;;;;;;;5.05;1.60;;;;;;;9.33;33.82;99730.94;5022002;28;20472;-70
2022/02/13 10:21:58;;;;;;;5.38;1.60;;;;;;;9.83;33.94;99769.25;5037897;28;20073;-71
2022/02/13 10:24:30;;;;;;;5.55;1.30;;;;;;;8.98;33.65;99752.81;5072642;28;20046;-70
2022/02/13 10:26:56;;;;;;;9.65;1.48;;;;;;;9.21;33.96;99732.13;5074419;28;20044;-71
2022/02/13 10:29:32;;;;;;;5.28;1.35;;;;;;;9.67;33.69;99751.34;5092055;28;20053;-71
2022/02/13 10:32:21;;;;;;;5.22;1.45;;;;;;;10.41;32.50;99751.91;5110326;28;20047;-70
2022/02/13 10:35:08;;;;;;;6.00;1.90;;;;;;;10.06;32.64;99763.38;5058270;28;20071;-73
2022/02/13 10:37:46;;;;;;;3.83;1.40;;;;;;;10.21;32.13;99735.34;5091219;28;20055;-71
2022/02/13 10:40:18;;;;;;;2.85;1.33;;;;;;;10.49;32.07;99756.44;5110841;28;20047;-71
2022/02/13 10:42:44;;;;;;;3.78;1.45;;;;;;;10.21;31.73;99743.31;5057910;28;20047;-70
2022/02/13 10:45:21;;;;;;;5.57;1.90;;;;;;;11.46;30.63;99758.69;5074660;28;20085;-70
2022/02/13 10:47:49;;;;;;;3.60;1.55;;;;;;;13.69;27.21;99749.91;5091126;28;20044;-69
2022/02/13 10:50:17;;;;;;;4.93;1.50;;;;;;;14.57;25.34;99760.00;5075085;28;20054;-70
2022/02/13 10:52:52;;;;;;;4.75;1.48;;;;;;;14.89;25.06;99760.53;5109519;28;20042;-70
2022/02/13 10:55:18;;;;;;;4.55;1.50;;;;;;;16.66;22.91;99769.75;5057683;28;20076;-71
2022/02/13 10:57:44;;;;;;;4.35;1.73;;;;;;;17.48;21.73;99762.66;5057909;28;20356;-68
2022/02/13 11:00:12;;;;;;;2.90;1.25;;;;;;;19.00;19.93;99742.09;5058239;28;20099;-68
2022/02/13 11:02:41;;;;;;;5.50;1.67;;;;;;;19.03;20.03;99751.63;5074153;28;20411;-70
2022/02/13 11:05:08;;;;;;;4.38;1.40;;;;;;;20.51;18.55;99748.50;5057757;28;20411;-69
2022/02/13 11:07:42;;;;;;;3.90;1.60;;;;;;;21.83;16.76;99749.75;5074038;28;20084;-68
2022/02/13 11:10:11;;;;;;;2.65;1.30;;;;;;;23.06;15.70;99746.19;5057324;28;20074;-70
2022/02/13 11:12:37;;;;;;;4.28;2.22;;;;;;;23.72;14.65;99740.34;5056054;28;20048;-70
2022/02/13 11:15:17;;;;;;;3.72;1.77;;;;;;;24.86;13.55;99727.31;5057326;28;20048;-70
2022/02/13 11:17:45;;;;;;;3.70;1.73;;;;;;;23.49;14.47;99738.53;5074890;28;20090;-69
2022/02/13 11:20:13;;;;;;;3.67;1.92;;;;;;;22.64;14.89;99736.50;5109912;28;20071;-70
2022/02/13 11:22:39;;;;;;;6.70;2.10;;;;;;;22.68;15.42;99726.88;5108900;28;20112;-68
2022/02/13 11:25:06;;;;;;;4.78;2.28;;;;;;;22.27;15.45;99719.56;5057320;28;20581;-71
2022/02/13 11:27:54;;;;;;;4.72;1.40;;;;;;;21.59;15.29;99726.28;5056691;28;20130;-69
2022/02/13 11:30:46;;;;;;;4.20;1.80;;;;;;;20.92;16.45;99735.31;5057672;28;20039;-68
2022/02/13 11:33:32;;;;;;;8.57;2.17;;;;;;;19.78;17.20;99732.97;5074306;28;20047;-69
2022/02/13 11:36:00;;;;;;;5.15;2.10;;;;;;;18.61;18.29;99725.97;5073297;28;20040;-69
2022/02/13 11:38:46;;;;;;;4.80;2.15;;;;;;;16.83;20.75;99738.09;5073724;28;20051;-69